createdAt,value
2018-05-08T00:01:58.234Z,80.88
2018-05-08T00:04:23.967Z,81.29
2018-05-08T00:06:49.748Z,81.11
2018-05-08T00:09:15.533Z,81.37
2018-05-08T00:11:41.280Z,81.55
2018-05-08T00:14:07.037Z,81.80
2018-05-08T00:16:32.780Z,81.88
2018-05-08T00:18:58.534Z,82.04
2018-05-08T00:21:24.280Z,82.23
2018-05-08T00:23:50.034Z,82.17
2018-05-08T00:26:15.796Z,82.16
2018-05-08T00:28:41.536Z,82.51
2018-05-08T00:31:07.268Z,82.38
2018-05-08T00:33:33.007Z,82.47
2018-05-08T00:35:58.727Z,82.42
2018-05-08T00:38:24.494Z,82.48
2018-05-08T00:40:50.259Z,82.44
2018-05-08T00:43:16.014Z,82.36
2018-05-08T00:45:41.760Z,82.73
2018-05-08T00:48:07.519Z,82.73
2018-05-08T00:50:33.252Z,82.79
2018-05-08T00:52:58.999Z,82.68
2018-05-08T00:55:24.749Z,82.93
2018-05-08T00:57:50.493Z,83.06
2018-05-08T01:00:16.252Z,82.84
2018-05-08T01:02:42.009Z,82.56
2018-05-08T01:05:07.757Z,82.67
2018-05-08T01:07:33.499Z,82.96
2018-05-08T01:09:59.236Z,83.10
2018-05-08T01:12:24.977Z,83.15
2018-05-08T01:14:50.721Z,82.69
2018-05-08T01:17:16.473Z,82.73
2018-05-08T01:19:42.224Z,82.49
2018-05-08T01:22:08.009Z,82.25
2018-05-08T01:24:33.760Z,81.82
2018-05-08T01:26:59.515Z,82.02
2018-05-08T01:29:25.256Z,81.87
2018-05-08T01:31:51.012Z,82.00
2018-05-08T01:34:16.768Z,82.13
2018-05-08T01:36:42.534Z,82.11
2018-05-08T01:39:08.284Z,82.13
2018-05-08T01:41:34.040Z,81.74
2018-05-08T01:43:59.799Z,81.27
2018-05-08T01:46:25.556Z,82.37
2018-05-08T01:48:51.297Z,82.48
2018-05-08T01:51:17.043Z,82.94
2018-05-08T01:53:42.803Z,83.18
2018-05-08T01:56:08.533Z,82.87
2018-05-08T01:58:34.324Z,83.18
2018-05-08T02:01:00.088Z,83.26
2018-05-08T02:03:25.848Z,83.45
2018-05-08T02:05:51.572Z,83.58
2018-05-08T02:08:17.322Z,83.64
2018-05-08T02:10:43.053Z,84.04
2018-05-08T02:13:08.799Z,83.85
2018-05-08T02:15:34.532Z,83.33
2018-05-08T02:18:00.273Z,83.66
2018-05-08T02:20:26.012Z,83.57
2018-05-08T02:22:51.757Z,83.76
2018-05-08T02:25:17.501Z,83.05
2018-05-08T02:27:43.237Z,83.48
2018-05-08T02:30:08.979Z,83.81
2018-05-08T02:32:34.717Z,82.88
2018-05-08T02:35:00.464Z,83.83
2018-05-08T02:37:26.214Z,84.25
2018-05-08T02:39:51.967Z,84.64
2018-05-08T02:42:17.709Z,83.90
2018-05-08T02:44:43.447Z,84.53
2018-05-08T02:47:09.181Z,84.75
2018-05-08T02:49:34.925Z,84.10
2018-05-08T02:52:00.671Z,84.04
2018-05-08T02:54:26.419Z,84.26
2018-05-08T02:56:52.177Z,83.51
2018-05-08T02:59:17.929Z,84.04
2018-05-08T03:01:43.680Z,84.40
2018-05-08T03:04:09.425Z,84.20
2018-05-08T03:06:35.170Z,83.95
2018-05-08T03:09:00.919Z,84.85
2018-05-08T03:11:26.688Z,84.21
2018-05-08T03:13:52.434Z,84.58
2018-05-08T03:16:18.184Z,84.57
2018-05-08T03:18:43.936Z,83.66
2018-05-08T03:21:09.681Z,83.93
2018-05-08T03:23:35.424Z,84.30
2018-05-08T03:26:01.160Z,84.97
2018-05-08T03:28:26.892Z,84.32
2018-05-08T03:30:52.629Z,84.79
2018-05-08T03:33:18.350Z,85.00
2018-05-08T03:35:44.099Z,85.44
2018-05-08T03:38:09.831Z,85.48
2018-05-08T03:40:35.559Z,85.47
2018-05-08T03:43:01.292Z,86.01
2018-05-08T03:45:27.281Z,85.56
2018-05-08T03:47:53.023Z,85.85
2018-05-08T03:50:18.749Z,85.91
2018-05-08T03:52:44.494Z,85.72
2018-05-08T03:55:10.236Z,85.96
2018-05-08T03:57:35.987Z,86.13
2018-05-08T04:00:01.716Z,85.72
2018-05-08T04:02:39.893Z,85.78
2018-05-08T04:05:18.160Z,85.82
2018-05-08T04:07:56.233Z,85.28
2018-05-08T04:10:21.964Z,85.24
2018-05-08T04:12:47.709Z,84.25
2018-05-08T04:15:13.443Z,85.05
2018-05-08T04:17:39.173Z,84.88
2018-05-08T04:20:04.893Z,84.61
2018-05-08T04:22:30.636Z,84.80
2018-05-08T04:24:56.372Z,84.45
2018-05-08T04:27:22.111Z,84.41
2018-05-08T04:29:47.828Z,83.92
2018-05-08T04:32:13.575Z,83.22
2018-05-08T04:34:39.296Z,83.66
2018-05-08T04:37:05.033Z,83.30
2018-05-08T04:39:30.765Z,82.90
2018-05-08T04:41:56.491Z,82.24
2018-05-08T04:44:22.220Z,82.79
2018-05-08T04:46:47.951Z,82.50
2018-05-08T04:49:13.795Z,81.91
2018-05-08T04:51:39.438Z,81.85
2018-05-08T04:54:05.168Z,81.77
2018-05-08T04:56:30.908Z,81.47
2018-05-08T04:58:56.637Z,81.47
2018-05-08T05:01:22.363Z,81.47
2018-05-08T05:03:48.123Z,81.64
2018-05-08T05:06:13.864Z,81.31
2018-05-08T05:08:39.605Z,80.39
2018-05-08T05:11:05.355Z,81.23
2018-05-08T05:13:31.087Z,80.85
2018-05-08T05:15:56.819Z,80.10
2018-05-08T05:18:22.565Z,79.58
2018-05-08T05:20:48.300Z,80.00
2018-05-08T05:23:14.044Z,79.34
2018-05-08T05:25:39.778Z,78.62
2018-05-08T05:28:05.516Z,77.03
2018-05-08T05:30:31.268Z,76.89
2018-05-08T05:32:57.007Z,77.41
2018-05-08T05:35:22.744Z,77.60
2018-05-08T05:37:48.473Z,76.48
2018-05-08T05:40:14.218Z,76.41
2018-05-08T05:42:39.967Z,75.36
2018-05-08T05:45:05.732Z,75.38
2018-05-08T05:47:31.467Z,74.99
2018-05-08T05:49:57.220Z,75.50
2018-05-08T05:52:22.945Z,74.45
2018-05-08T05:54:48.684Z,74.74
2018-05-08T05:57:14.412Z,73.47
2018-05-08T05:59:40.170Z,73.45
2018-05-08T06:02:05.896Z,73.94
2018-05-08T06:04:31.631Z,72.86
2018-05-08T06:06:57.348Z,72.74
2018-05-08T06:09:23.090Z,73.10
2018-05-08T06:11:48.817Z,72.97
2018-05-08T06:14:14.568Z,71.49
2018-05-08T06:16:40.291Z,69.89
2018-05-08T06:19:06.030Z,70.45
2018-05-08T06:21:31.772Z,68.80
2018-05-08T06:23:57.492Z,67.57
2018-05-08T06:26:23.247Z,67.21
2018-05-08T06:28:48.980Z,66.08
2018-05-08T06:31:14.728Z,66.33
2018-05-08T06:33:40.445Z,63.91
2018-05-08T06:36:06.189Z,65.27
2018-05-08T06:38:31.911Z,64.68
2018-05-08T06:40:58.731Z,63.56
2018-05-08T06:43:24.495Z,65.31
2018-05-08T06:45:50.256Z,63.59
2018-05-08T06:48:15.983Z,62.70
2018-05-08T06:50:41.717Z,62.72
2018-05-08T06:53:07.457Z,63.50
2018-05-08T06:55:33.197Z,62.36
2018-05-08T06:57:58.933Z,60.71
2018-05-08T07:00:24.677Z,62.16
2018-05-08T07:02:50.420Z,61.62
2018-05-08T07:05:16.166Z,57.73
2018-05-08T07:07:41.911Z,59.46
2018-05-08T07:10:07.649Z,58.48
2018-05-08T07:12:33.383Z,57.95
2018-05-08T07:14:59.122Z,58.28
2018-05-08T07:17:24.853Z,56.90
2018-05-08T07:19:50.615Z,56.92
2018-05-08T07:22:16.388Z,56.70
2018-05-08T07:24:42.125Z,57.61
2018-05-08T07:27:07.861Z,58.31
2018-05-08T07:29:33.612Z,53.46
2018-05-08T07:31:59.349Z,51.96
2018-05-08T07:34:25.093Z,52.47
2018-05-08T07:36:50.823Z,54.50
2018-05-08T07:39:16.573Z,51.00
2018-05-08T07:41:42.305Z,50.47
2018-05-08T07:44:08.061Z,51.88
2018-05-08T07:46:33.797Z,50.44
2018-05-08T07:48:59.552Z,50.17
2018-05-08T07:51:25.280Z,48.99
2018-05-08T07:53:51.773Z,48.84
2018-05-08T07:56:17.535Z,47.40
2018-05-08T07:58:43.293Z,47.96
2018-05-08T08:01:09.035Z,47.42
2018-05-08T08:03:34.785Z,47.45
2018-05-08T08:06:01.195Z,46.50
2018-05-08T08:08:27.222Z,45.48
2018-05-08T08:10:52.976Z,45.42
2018-05-08T08:13:18.717Z,45.13
2018-05-08T08:15:44.484Z,44.58
2018-05-08T08:18:10.526Z,44.60
2018-05-08T08:20:36.284Z,43.46
2018-05-08T08:23:02.047Z,43.34
2018-05-08T08:25:27.782Z,43.18
2018-05-08T08:27:53.533Z,42.62
2018-05-08T08:30:19.280Z,42.66
2018-05-08T08:32:52.080Z,43.16
2018-05-08T08:35:17.819Z,42.36
2018-05-08T08:37:43.581Z,41.14
2018-05-08T08:40:09.325Z,40.85
2018-05-08T08:42:35.084Z,41.30
2018-05-08T08:45:00.824Z,38.84
2018-05-08T08:47:26.577Z,40.78
2018-05-08T08:49:52.713Z,42.24
2018-05-08T08:52:18.531Z,39.19
2018-05-08T08:54:44.249Z,40.67
2018-05-08T08:57:10.886Z,40.23
2018-05-08T08:59:36.615Z,38.27
2018-05-08T09:02:02.397Z,39.13
2018-05-08T09:04:28.124Z,39.72
2018-05-08T09:06:53.856Z,39.36
2018-05-08T09:09:19.597Z,38.43
2018-05-08T09:11:45.693Z,37.46
2018-05-08T09:14:11.859Z,37.50
2018-05-08T09:16:39.400Z,36.83
2018-05-08T09:19:05.133Z,37.17
2018-05-08T09:21:30.882Z,38.70
2018-05-08T09:23:56.771Z,37.59
2018-05-08T09:26:22.538Z,37.77
2018-05-08T09:28:48.278Z,36.62
2018-05-08T09:31:14.043Z,37.57
2018-05-08T09:33:39.789Z,36.12
2018-05-08T09:36:05.739Z,35.38
2018-05-08T09:38:31.496Z,35.86
2018-05-08T09:40:57.317Z,35.96
2018-05-08T09:43:22.977Z,35.79
2018-05-08T09:45:48.721Z,35.95
2018-05-08T09:48:14.469Z,35.99
2018-05-08T09:50:40.217Z,34.80
2018-05-08T09:53:05.968Z,35.54
2018-05-08T09:55:31.697Z,36.29
2018-05-08T09:57:57.441Z,36.41
2018-05-08T10:00:23.175Z,34.06
2018-05-08T10:02:48.909Z,34.00
2018-05-08T10:05:14.644Z,34.35
2018-05-08T10:07:40.392Z,34.43
2018-05-08T10:10:06.111Z,32.38
2018-05-08T10:12:31.853Z,33.68
2018-05-08T10:14:57.590Z,33.31
2018-05-08T10:17:23.316Z,34.40
2018-05-08T10:19:49.032Z,32.58
2018-05-08T10:22:14.766Z,33.04
2018-05-08T10:24:40.486Z,31.82
2018-05-08T10:27:06.220Z,31.55
2018-05-08T10:29:31.952Z,30.77
2018-05-08T10:31:57.676Z,31.40
2018-05-08T10:34:23.412Z,31.44
2018-05-08T10:36:49.132Z,32.08
2018-05-08T10:39:14.852Z,31.62
2018-05-08T10:41:40.580Z,31.56
2018-05-08T10:44:06.309Z,30.81
2018-05-08T10:46:32.028Z,30.26
2018-05-08T10:48:57.754Z,30.83
2018-05-08T10:51:23.463Z,30.88
2018-05-08T10:53:49.193Z,31.38
2018-05-08T10:56:14.897Z,31.66
2018-05-08T10:58:40.634Z,30.59
2018-05-08T11:01:06.356Z,30.11
2018-05-08T11:03:32.080Z,30.24
2018-05-08T11:05:57.796Z,30.27
2018-05-08T11:08:23.536Z,30.13
2018-05-08T11:10:49.272Z,30.58
2018-05-08T11:13:15.006Z,30.25
2018-05-08T11:15:40.727Z,29.83
2018-05-08T11:18:06.463Z,30.31
2018-05-08T11:20:32.207Z,29.86
2018-05-08T11:22:57.928Z,31.58
2018-05-08T11:25:23.656Z,31.46
2018-05-08T11:27:49.380Z,31.17
2018-05-08T11:30:15.097Z,29.76
2018-05-08T11:32:40.840Z,30.12
2018-05-08T11:35:06.557Z,29.67
2018-05-08T11:37:32.284Z,29.85
2018-05-08T11:39:58.012Z,29.17
2018-05-08T11:42:23.748Z,30.67
2018-05-08T11:44:49.579Z,29.09
2018-05-08T11:47:15.195Z,30.36
2018-05-08T11:49:40.925Z,30.31
2018-05-08T11:52:06.648Z,28.76
2018-05-08T11:54:32.392Z,27.86
2018-05-08T11:56:58.112Z,29.98
2018-05-08T11:59:23.851Z,27.96
2018-05-08T12:01:49.572Z,28.51
2018-05-08T12:04:15.316Z,28.12
2018-05-08T12:06:41.040Z,27.80
2018-05-08T12:09:06.808Z,28.99
2018-05-08T12:11:32.536Z,29.54
2018-05-08T12:13:58.278Z,30.22
2018-05-08T12:16:24.004Z,28.59
2018-05-08T12:18:49.737Z,28.90
2018-05-08T12:21:15.457Z,28.58
2018-05-08T12:23:41.186Z,28.34
2018-05-08T12:26:06.915Z,28.59
2018-05-08T12:28:32.648Z,29.17
2018-05-08T12:30:58.407Z,28.61
2018-05-08T12:33:24.144Z,31.25
2018-05-08T12:35:49.865Z,30.74
2018-05-08T12:38:15.604Z,30.04
2018-05-08T12:40:41.324Z,28.12
2018-05-08T12:43:07.040Z,27.26
2018-05-08T12:45:32.832Z,28.81
2018-05-08T12:47:58.568Z,28.70
2018-05-08T12:50:24.419Z,28.54
2018-05-08T12:52:50.087Z,28.27
2018-05-08T12:55:15.837Z,27.84
2018-05-08T12:57:41.582Z,28.09
2018-05-08T13:00:07.338Z,29.51
2018-05-08T13:02:33.052Z,30.13
2018-05-08T13:04:58.784Z,31.49
2018-05-08T13:07:24.516Z,32.48
2018-05-08T13:09:50.253Z,32.87
2018-05-08T13:12:15.963Z,31.56
2018-05-08T13:14:41.712Z,31.59
2018-05-08T13:17:07.433Z,31.11
2018-05-08T13:19:33.160Z,28.93
2018-05-08T13:21:58.876Z,29.43
2018-05-08T13:24:24.610Z,29.49
2018-05-08T13:26:50.325Z,31.39
2018-05-08T13:29:16.072Z,31.29
2018-05-08T13:31:41.795Z,31.25
2018-05-08T13:34:07.513Z,32.16
2018-05-08T13:36:33.296Z,32.27
2018-05-08T13:38:58.974Z,32.29
2018-05-08T13:41:24.688Z,31.80
2018-05-08T13:43:50.416Z,32.29
2018-05-08T13:46:16.137Z,32.87
2018-05-08T13:48:41.871Z,32.82
2018-05-08T13:51:07.592Z,33.58
2018-05-08T13:53:33.317Z,33.73
2018-05-08T13:55:59.047Z,32.80
2018-05-08T13:58:24.776Z,32.38
2018-05-08T14:00:50.577Z,33.15
2018-05-08T14:03:16.244Z,33.20
2018-05-08T14:05:41.981Z,33.04
2018-05-08T14:08:07.723Z,33.45
2018-05-08T14:10:33.464Z,33.28
2018-05-08T14:12:59.274Z,34.73
2018-05-08T14:15:24.983Z,33.17
2018-05-08T14:17:50.653Z,33.56
2018-05-08T14:20:16.388Z,34.26
2018-05-08T14:22:42.119Z,33.72
2018-05-08T14:25:07.848Z,33.55
2018-05-08T14:27:33.576Z,33.92
2018-05-08T14:29:59.309Z,34.11
2018-05-08T14:32:25.024Z,34.70
2018-05-08T14:34:50.756Z,34.17
2018-05-08T14:37:16.464Z,34.37
2018-05-08T14:39:42.197Z,34.60
2018-05-08T14:42:07.929Z,34.29
2018-05-08T14:44:33.657Z,35.60
2018-05-08T14:46:59.372Z,34.59
2018-05-08T14:49:25.172Z,34.35
2018-05-08T14:51:50.827Z,35.72
2018-05-08T14:54:16.576Z,34.98
2018-05-08T14:56:42.288Z,35.60
2018-05-08T14:59:08.016Z,34.73
2018-05-08T15:01:33.735Z,36.57
2018-05-08T15:03:59.452Z,35.60
2018-05-08T15:06:25.204Z,35.27
2018-05-08T15:08:50.932Z,35.13
2018-05-08T15:11:16.680Z,35.09
2018-05-08T15:13:42.446Z,35.20
2018-05-08T15:16:08.178Z,35.39
2018-05-08T15:18:33.919Z,36.58
2018-05-08T15:20:59.661Z,35.63
2018-05-08T15:23:25.400Z,35.94
2018-05-08T15:25:51.136Z,36.35
2018-05-08T15:28:16.868Z,37.24
2018-05-08T15:30:42.604Z,36.82
2018-05-08T15:33:08.339Z,36.52
2018-05-08T15:35:34.090Z,36.90
2018-05-08T15:37:59.833Z,37.26
2018-05-08T15:40:25.565Z,36.86
2018-05-08T15:42:52.162Z,36.42
2018-05-08T15:45:18.551Z,37.11
2018-05-08T15:47:44.838Z,37.19
2018-05-08T15:50:11.388Z,37.57
2018-05-08T15:52:37.866Z,36.78
2018-05-08T15:55:04.994Z,36.42
2018-05-08T15:57:31.592Z,36.90
2018-05-08T15:59:58.475Z,37.73
2018-05-08T16:02:25.082Z,39.02
2018-05-08T16:04:51.556Z,38.73
2018-05-08T16:07:17.897Z,38.83
2018-05-08T16:09:44.519Z,39.00
2018-05-08T16:12:11.524Z,37.85
2018-05-08T16:14:38.324Z,38.43
2018-05-08T16:17:04.060Z,39.87
2018-05-08T16:19:30.572Z,39.11
2018-05-08T16:21:56.337Z,38.77
2018-05-08T16:24:22.068Z,38.68
2018-05-08T16:26:47.826Z,38.21
2018-05-08T16:29:13.547Z,38.45
2018-05-08T16:31:39.279Z,39.24
2018-05-08T16:34:05.017Z,39.33
2018-05-08T16:36:30.752Z,38.65
2018-05-08T16:38:56.484Z,39.67
2018-05-08T16:41:22.216Z,39.80
2018-05-08T16:43:47.949Z,40.23
2018-05-08T16:46:13.700Z,40.14
2018-05-08T16:48:39.448Z,40.26
2018-05-08T16:51:05.193Z,41.31
2018-05-08T16:53:30.924Z,40.85
2018-05-08T16:55:56.664Z,40.61
2018-05-08T16:58:22.377Z,41.47
2018-05-08T17:00:48.113Z,41.86
2018-05-08T17:03:13.844Z,42.45
2018-05-08T17:05:39.580Z,42.89
2018-05-08T17:08:05.303Z,42.52
2018-05-08T17:10:31.097Z,43.40
2018-05-08T17:12:56.785Z,44.02
2018-05-08T17:15:22.529Z,43.46
2018-05-08T17:17:48.440Z,42.52
2018-05-08T17:20:14.152Z,43.48
2018-05-08T17:22:39.872Z,43.36
2018-05-08T17:25:05.585Z,42.72
2018-05-08T17:27:31.308Z,43.87
2018-05-08T17:29:57.031Z,43.56
2018-05-08T17:32:22.755Z,44.29
2018-05-08T17:34:48.485Z,44.23
2018-05-08T17:37:14.221Z,44.36
2018-05-08T17:39:39.947Z,44.19
2018-05-08T17:42:05.685Z,44.49
2018-05-08T17:44:31.420Z,44.67
2018-05-08T17:46:57.176Z,45.35
2018-05-08T17:49:22.916Z,45.94
2018-05-08T17:51:48.661Z,45.81
2018-05-08T17:54:14.397Z,47.34
2018-05-08T17:56:40.145Z,46.06
2018-05-08T17:59:05.891Z,46.20
2018-05-08T18:01:31.641Z,46.32
2018-05-08T18:03:57.419Z,46.84
2018-05-08T18:06:23.118Z,46.72
2018-05-08T18:08:48.850Z,47.22
2018-05-08T18:11:14.572Z,47.14
2018-05-08T18:13:40.314Z,47.42
2018-05-08T18:16:06.045Z,47.40
2018-05-08T18:18:31.768Z,47.76
2018-05-08T18:20:57.491Z,47.84
2018-05-08T18:23:23.235Z,48.28
2018-05-08T18:25:48.951Z,48.41
2018-05-08T18:28:14.693Z,48.59
2018-05-08T18:30:40.431Z,48.58
2018-05-08T18:33:06.175Z,48.64
2018-05-08T18:35:31.914Z,49.18
2018-05-08T18:37:57.664Z,49.08
2018-05-08T18:40:23.411Z,49.89
2018-05-08T18:42:49.152Z,50.13
2018-05-08T18:45:14.881Z,50.04
2018-05-08T18:47:40.627Z,50.68
2018-05-08T18:50:06.366Z,51.69
2018-05-08T18:52:32.111Z,51.48
2018-05-08T18:54:57.832Z,51.80
2018-05-08T18:57:23.564Z,51.42
2018-05-08T18:59:49.305Z,51.73
2018-05-08T19:02:15.037Z,51.50
2018-05-08T19:04:40.770Z,51.74
2018-05-08T19:07:06.585Z,52.20
2018-05-08T19:09:32.335Z,52.88
2018-05-08T19:11:57.997Z,53.36
2018-05-08T19:14:23.717Z,53.93
2018-05-08T19:16:49.456Z,54.53
2018-05-08T19:19:21.239Z,54.25
2018-05-08T19:21:46.973Z,54.44
2018-05-08T19:24:18.828Z,54.81
2018-05-08T19:26:44.573Z,55.54
2018-05-08T19:32:11.013Z,57.04
2018-05-08T19:34:42.887Z,57.47
2018-05-08T19:37:14.791Z,58.51
2018-05-08T19:39:40.517Z,59.20
2018-05-08T19:42:06.253Z,59.80
2018-05-08T19:44:31.964Z,60.64
2018-05-08T19:46:57.790Z,61.59
2018-05-08T19:49:23.436Z,61.82
2018-05-08T19:51:49.160Z,62.46
2018-05-08T19:54:14.979Z,63.00
2018-05-08T19:56:40.632Z,63.58
2018-05-08T19:59:06.354Z,63.89
2018-05-08T20:01:32.079Z,64.29
2018-05-08T20:03:57.812Z,64.89
2018-05-08T20:06:23.532Z,65.39
2018-05-08T20:08:49.388Z,65.80
2018-05-08T20:11:15.029Z,65.41
2018-05-08T20:13:40.767Z,66.14
2018-05-08T20:16:06.536Z,66.26
2018-05-08T20:18:32.277Z,65.92
2018-05-08T20:20:58.061Z,66.32
2018-05-08T20:23:23.756Z,67.16
2018-05-08T20:25:49.488Z,66.80
2018-05-08T20:28:15.251Z,67.33
2018-05-08T20:30:41.015Z,67.07
2018-05-08T20:33:06.731Z,67.55
2018-05-08T20:35:32.461Z,68.04
2018-05-08T20:37:58.201Z,67.98
2018-05-08T20:40:23.933Z,67.94
2018-05-08T20:42:49.673Z,67.73
2018-05-08T20:45:15.404Z,67.90
2018-05-08T20:47:41.164Z,68.19
2018-05-08T20:50:06.900Z,68.08
2018-05-08T20:52:32.624Z,68.45
2018-05-08T20:54:58.392Z,68.35
2018-05-08T20:57:24.128Z,68.05
2018-05-08T20:59:49.868Z,68.53
2018-05-08T21:02:15.600Z,68.79
2018-05-08T21:04:41.348Z,68.44
2018-05-08T21:07:07.088Z,68.90
2018-05-08T21:09:32.824Z,69.15
2018-05-08T21:11:58.557Z,69.39
2018-05-08T21:14:24.380Z,69.36
2018-05-08T21:16:50.048Z,69.45
2018-05-08T21:19:15.782Z,69.24
2018-05-08T21:21:41.516Z,69.45
2018-05-08T21:24:07.554Z,69.40
2018-05-08T21:26:33.582Z,69.41
2018-05-08T21:28:59.347Z,69.30
2018-05-08T21:31:25.067Z,69.83
2018-05-08T21:33:51.160Z,70.05
2018-05-08T21:36:16.937Z,69.99
2018-05-08T21:38:42.679Z,70.22
2018-05-08T21:41:08.406Z,70.21
2018-05-08T21:43:34.141Z,70.16
2018-05-08T21:46:00.225Z,70.19
2018-05-08T21:48:26.306Z,70.08
2018-05-08T21:50:52.049Z,70.37
2018-05-08T21:53:17.784Z,70.89
2018-05-08T21:55:43.516Z,70.25
2018-05-08T21:58:09.249Z,71.06
2018-05-08T22:00:34.992Z,71.29
2018-05-08T22:03:00.719Z,71.54
2018-05-08T22:05:26.509Z,71.90
2018-05-08T22:07:52.249Z,71.57
2018-05-08T22:10:17.986Z,72.07
2018-05-08T22:12:43.716Z,71.89
2018-05-08T22:15:09.449Z,72.24
2018-05-08T22:17:35.164Z,71.68
2018-05-08T22:20:00.915Z,71.72
2018-05-08T22:22:26.632Z,72.02
2018-05-08T22:24:52.368Z,72.41
2018-05-08T22:27:18.097Z,72.60
2018-05-08T22:29:43.829Z,72.91
2018-05-08T22:32:09.626Z,73.06
2018-05-08T22:34:35.343Z,72.90
2018-05-08T22:37:01.065Z,72.39
2018-05-08T22:39:26.813Z,72.26
2018-05-08T22:41:52.533Z,72.91
2018-05-08T22:44:18.276Z,72.42
2018-05-08T22:46:43.996Z,73.52
2018-05-08T22:49:09.741Z,73.40
2018-05-08T22:51:35.464Z,73.00
2018-05-08T22:54:01.208Z,73.33
2018-05-08T22:58:59.376Z,72.83
2018-05-08T23:01:25.110Z,72.88
2018-05-08T23:03:50.844Z,73.02
2018-05-08T23:06:16.573Z,72.87
2018-05-08T23:08:42.315Z,73.64
2018-05-08T23:11:08.053Z,73.12
2018-05-08T23:13:33.783Z,73.50
2018-05-08T23:15:59.525Z,73.42
2018-05-08T23:18:25.249Z,73.52
2018-05-08T23:20:51.001Z,73.71
2018-05-08T23:23:16.725Z,74.46
2018-05-08T23:25:42.482Z,74.28
2018-05-08T23:28:08.196Z,74.05
2018-05-08T23:30:33.939Z,73.85
2018-05-08T23:32:59.668Z,74.31
2018-05-08T23:35:25.424Z,73.89
2018-05-08T23:37:51.172Z,73.51
2018-05-08T23:40:16.908Z,73.91
2018-05-08T23:42:42.645Z,74.86
2018-05-08T23:45:08.382Z,74.64
2018-05-08T23:47:34.105Z,74.54
2018-05-08T23:49:59.845Z,74.00
2018-05-08T23:52:25.560Z,74.19
2018-05-08T23:54:51.308Z,74.28
2018-05-08T23:57:17.031Z,75.29
2018-05-08T23:59:42.775Z,75.18
